TimePDT,TemperatureF,Dew PointF,Humidity,Sea Level PressureIn,VisibilityMPH,Wind Direction,Wind SpeedMPH,Gust SpeedMPH,PrecipitationIn,Events,Conditions,WindDirDegrees,DateUTC
12:53 AM,48.0,18.0,30,29.91,10.0,South,13.8,26.5,N/A,,Clear,170,2012-11-01 07:53:00
1:53 AM,46.9,19.9,34,29.91,10.0,SSE,6.9,19.6,N/A,,Scattered Clouds,160,2012-11-01 08:53:00
2:53 AM,45.0,21.0,39,29.93,10.0,SSE,9.2,-,N/A,,Mostly Cloudy,160,2012-11-01 09:53:00
3:53 AM,45.0,25.0,46,29.94,10.0,Calm,Calm,-,N/A,,Overcast,0,2012-11-01 10:53:00
4:38 AM,41.0,32.0,70,30.06,9.0,South,12.7,19.6,0.00,Rain,Light Rain,170,2012-11-01 11:38:00
4:53 AM,39.9,33.1,77,29.97,7.0,South,13.8,-,0.01,Rain,Light Rain,180,2012-11-01 11:53:00
5:53 AM,39.9,34.0,79,29.99,6.0,South,10.4,-,0.03,Rain,Light Rain,170,2012-11-01 12:53:00
7:23 AM,39.2,35.6,87,30.07,10.0,South,9.2,-,0.01,Rain,Light Rain,190,2012-11-01 14:23:00
7:53 AM,39.9,35.1,83,30.00,9.0,South,13.8,-,0.02,Rain,Light Rain,180,2012-11-01 14:53:00
8:53 AM,39.9,36.0,86,30.01,10.0,SSW,9.2,-,0.01,Rain,Light Rain,200,2012-11-01 15:53:00
9:19 AM,41.0,35.6,81,30.08,6.0,South,9.2,-,0.00,Rain,Light Rain,180,2012-11-01 16:19:00
9:53 AM,41.0,36.0,82,30.02,5.0,SSW,9.2,-,0.01,Rain,Light Rain,200,2012-11-01 16:53:00
10:02 AM,41.0,37.4,87,30.09,6.0,South,11.5,-,0.00,Rain,Light Rain,180,2012-11-01 17:02:00
10:53 AM,42.1,37.9,85,30.03,5.0,SSW,8.1,-,0.02,Rain,Light Rain,200,2012-11-01 17:53:00
11:53 AM,45.0,37.9,76,30.02,10.0,Variable,5.8,-,0.01,Rain,Light Rain,0,2012-11-01 18:53:00
12:53 PM,45.0,37.9,76,30.01,10.0,SSW,10.4,18.4,0.00,Rain,Light Rain,200,2012-11-01 19:53:00
1:32 PM,44.6,37.4,76,30.09,10.0,SSW,10.4,17.3,0.00,Rain,Light Rain,200,2012-11-01 20:32:00
1:39 PM,44.6,37.4,76,30.09,10.0,SSW,8.1,-,0.00,Rain,Light Rain,200,2012-11-01 20:39:00
2:53 PM,46.9,36.0,66,30.01,10.0,South,11.5,-,N/A,,Mostly Cloudy,190,2012-11-01 21:53:00
3:53 PM,46.9,35.1,63,30.01,10.0,SSW,5.8,-,N/A,,Scattered Clouds,200,2012-11-01 22:53:00
4:53 PM,46.0,34.0,63,30.04,10.0,SW,3.5,-,N/A,,Overcast,220,2012-11-01 23:53:00
5:53 PM,42.1,35.1,76,30.05,10.0,Calm,Calm,-,N/A,,Clear,0,2012-11-02 00:53:00
6:53 PM,37.9,34.0,86,30.08,10.0,Calm,Calm,-,N/A,,Partly Cloudy,0,2012-11-02 01:53:00
7:53 PM,35.1,32.0,89,30.09,9.0,Calm,Calm,-,N/A,,Clear,0,2012-11-02 02:53:00
8:53 PM,33.1,30.9,92,30.09,9.0,Calm,Calm,-,N/A,,Clear,0,2012-11-02 03:53:00
9:53 PM,30.9,28.9,92,30.11,8.0,Calm,Calm,-,N/A,,Clear,0,2012-11-02 04:53:00
10:53 PM,30.0,28.0,92,30.12,9.0,Calm,Calm,-,N/A,,Clear,0,2012-11-02 05:53:00